Time;durP1;ratioP1;P1;durP2;ratioP2;P2;SDS_P1;SDS_P2;PMS_P1;PMS_P2;Temp;Humidity;BMP_temperature;BMP_pressure;BME280_temperature;BME280_humidity;BME280_pressure;Samples;Min_cycle;Max_cycle;Signal;HPM_P1;HPM_P2
2022/05/23 00:00:45;;;;;;;4.43;2.93;;;;;;;19.95;51.66;97346.25;8350232;28;20263;-80
2022/05/23 00:04:48;;;;;;;5.13;2.83;;;;;;;19.89;50.98;97337.13;8349621;28;20228;-80
2022/05/23 00:08:53;;;;;;;6.40;3.00;;;;;;;19.81;50.43;97337.03;8349711;28;20228;-80
2022/05/23 00:12:56;;;;;;;6.20;2.60;;;;;;;19.80;50.51;97338.00;8349535;28;20228;-81
2022/05/23 00:16:59;;;;;;;4.83;2.63;;;;;;;19.66;50.50;97333.97;8349484;28;20237;-80
2022/05/23 00:21:02;;;;;;;7.47;2.60;;;;;;;19.67;50.56;97335.66;8349189;28;20252;-80
2022/05/23 00:25:09;;;;;;;6.23;2.70;;;;;;;19.59;49.88;97330.28;8349243;28;20224;-81
2022/05/23 00:29:11;;;;;;;7.30;2.57;;;;;;;19.59;50.00;97313.66;8348990;28;20238;-81
2022/05/23 00:37:35;;;;;;;3.53;2.40;;;;;;;19.57;48.51;97318.22;8380523;28;20236;-80
2022/05/23 00:46:05;;;;;;;5.13;2.50;;;;;;;19.56;48.29;97341.03;8381580;28;20240;-81
2022/05/23 00:50:09;;;;;;;4.87;2.60;;;;;;;19.50;49.63;97339.81;8381589;28;20232;-80
2022/05/23 00:54:12;;;;;;;3.90;2.47;;;;;;;19.39;50.34;97328.63;8381275;28;20236;-80
2022/05/23 00:58:19;;;;;;;6.87;2.60;;;;;;;19.36;50.10;97324.47;8381426;28;20239;-80
2022/05/23 01:02:22;;;;;;;5.33;2.80;;;;;;;19.36;49.04;97323.63;8380808;28;20322;-75
2022/05/23 01:06:25;;;;;;;5.10;2.50;;;;;;;19.24;49.40;97321.16;8380913;28;20258;-79
2022/05/23 01:10:30;;;;;;;5.03;2.70;;;;;;;19.28;48.52;97326.94;8380778;28;20235;-80
2022/05/23 01:14:47;;;;;;;4.23;2.63;;;;;;;19.21;47.69;97312.72;8380820;28;20526;-80
2022/05/23 01:18:50;;;;;;;4.70;2.60;;;;;;;18.96;47.85;97291.31;8380861;28;20227;-80
2022/05/23 01:23:00;;;;;;;10.50;2.73;;;;;;;19.10;47.59;97282.22;8380765;28;20254;-80
2022/05/23 01:27:07;;;;;;;8.50;2.70;;;;;;;19.12;47.80;97291.59;8380785;28;20233;-80
2022/05/23 01:31:11;;;;;;;7.07;2.97;;;;;;;19.09;48.51;97301.53;8380558;28;20235;-80
2022/05/23 01:35:15;;;;;;;5.80;2.47;;;;;;;18.93;48.69;97289.78;8380678;28;20232;-80
2022/05/23 01:39:18;;;;;;;5.43;2.83;;;;;;;18.95;48.50;97279.97;8380323;28;20233;-80
2022/05/23 01:43:22;;;;;;;4.67;2.70;;;;;;;18.96;48.15;97272.94;8380551;28;20224;-80
2022/05/23 01:47:25;;;;;;;3.97;2.73;;;;;;;18.91;48.98;97270.75;8380038;28;20238;-79
2022/05/23 01:51:28;;;;;;;4.70;2.77;;;;;;;18.86;48.88;97274.72;8385979;28;20235;-80
2022/05/23 01:55:31;;;;;;;4.27;2.77;;;;;;;18.87;47.59;97264.09;8386901;28;20517;-80
2022/05/23 02:03:56;;;;;;;7.10;2.60;;;;;;;18.90;47.25;97257.75;8386535;28;20234;-80
2022/05/23 02:07:59;;;;;;;7.40;2.70;;;;;;;18.63;47.57;97248.72;8386434;28;20298;-80
2022/05/23 02:12:02;;;;;;;7.70;2.80;;;;;;;18.53;47.25;97251.34;8386342;28;20423;-80
2022/05/23 02:16:07;;;;;;;8.00;2.57;;;;;;;18.35;47.33;97248.53;8386336;28;20231;-80
2022/05/23 02:20:11;;;;;;;7.27;2.77;;;;;;;18.65;46.78;97246.78;8385962;28;20250;-80
2022/05/23 02:24:15;;;;;;;4.27;2.40;;;;;;;18.55;46.94;97253.81;8386145;28;20238;-80
2022/05/23 02:28:17;;;;;;;5.40;2.60;;;;;;;18.43;47.10;97249.66;8386063;28;20321;-80
2022/05/23 02:32:22;;;;;;;4.30;2.30;;;;;;;18.33;46.83;97250.47;8385624;28;20239;-81
2022/05/23 02:36:25;;;;;;;5.17;2.40;;;;;;;18.12;47.52;97244.47;8385133;28;20243;-80
2022/05/23 02:40:28;;;;;;;5.17;2.60;;;;;;;18.24;47.07;97242.56;8385538;28;20238;-80
2022/05/23 02:44:31;;;;;;;4.20;2.67;;;;;;;18.14;47.58;97242.53;8385367;28;20231;-80
2022/05/23 02:48:35;;;;;;;8.27;2.37;;;;;;;18.15;47.50;97215.38;8385447;28;20231;-81
2022/05/23 02:52:39;;;;;;;7.70;2.50;;;;;;;18.32;47.27;97209.50;8385098;28;20538;-80
2022/05/23 02:56:41;;;;;;;5.10;2.50;;;;;;;18.20;47.61;97205.34;8398536;28;20276;-80
2022/05/23 03:00:44;;;;;;;6.43;2.30;;;;;;;18.33;47.11;97210.31;8417416;28;20234;-80
2022/05/23 03:04:48;;;;;;;4.07;2.67;;;;;;;18.45;47.51;97217.09;8388965;28;20230;-80
2022/05/23 03:08:51;;;;;;;5.60;2.80;;;;;;;18.36;46.94;97212.69;8384714;28;20235;-80
2022/05/23 03:12:55;;;;;;;6.27;2.70;;;;;;;18.28;47.34;97212.53;8384747;28;20223;-80
2022/05/23 03:17:00;;;;;;;5.37;2.60;;;;;;;17.93;47.98;97209.41;8384897;28;20544;-80
2022/05/23 03:21:07;;;;;;;5.33;2.70;;;;;;;17.88;48.10;97201.09;8384444;28;20257;-80
2022/05/23 03:29:31;;;;;;;4.67;2.70;;;;;;;17.96;48.00;97188.16;8383802;28;20235;-80
2022/05/23 03:33:35;;;;;;;6.97;2.80;;;;;;;17.67;48.32;97176.69;8383992;28;20302;-80
2022/05/23 03:37:39;;;;;;;6.73;2.60;;;;;;;17.95;47.92;97185.66;8383931;28;20534;-79
2022/05/23 03:41:42;;;;;;;7.60;2.87;;;;;;;17.99;47.59;97176.56;8383743;28;20243;-79
2022/05/23 03:45:46;;;;;;;3.90;2.60;;;;;;;18.05;47.65;97167.34;8383743;28;20227;-80
2022/05/23 03:49:49;;;;;;;5.73;2.60;;;;;;;17.71;48.57;97165.03;8383889;28;20513;-80
2022/05/23 03:53:53;;;;;;;5.37;2.87;;;;;;;17.71;48.60;97159.81;8383671;28;20533;-80
2022/05/23 03:57:56;;;;;;;4.20;2.57;;;;;;;18.07;47.92;97165.47;8383680;28;20224;-80
2022/05/23 04:01:59;;;;;;;3.93;2.50;;;;;;;18.17;47.71;97161.88;8383059;28;20418;-80
2022/05/23 04:06:02;;;;;;;5.50;2.70;;;;;;;18.03;47.74;97150.94;8412383;28;20234;-80
2022/05/23 04:10:08;;;;;;;4.77;2.77;;;;;;;17.94;47.51;97140.31;8416154;28;20415;-80
2022/05/23 04:14:11;;;;;;;4.77;2.60;;;;;;;18.10;47.61;97149.44;8415618;28;20230;-80
2022/05/23 04:18:14;;;;;;;4.20;2.40;;;;;;;18.04;47.44;97135.09;8415997;28;20242;-80
2022/05/23 04:22:16;;;;;;;9.03;2.83;;;;;;;18.06;47.62;97137.59;8415750;28;20238;-80
2022/05/23 04:26:21;;;;;;;6.07;2.87;;;;;;;17.66;48.43;97139.22;8415788;28;20234;-80
2022/05/23 04:30:24;;;;;;;8.50;2.90;;;;;;;17.71;48.58;97134.44;8414972;28;20230;-79
2022/05/23 04:38:47;;;;;;;8.40;2.87;;;;;;;17.64;48.93;97143.78;8414921;28;20223;-81
2022/05/23 04:42:52;;;;;;;6.23;2.50;;;;;;;17.54;49.39;97133.25;8415339;28;20226;-80
2022/05/23 04:51:15;;;;;;;4.73;3.07;;;;;;;17.69;49.02;97131.13;8414702;28;20231;-81
2022/05/23 04:55:18;;;;;;;6.90;3.10;;;;;;;17.82;49.04;97124.81;8414500;28;20234;-82
2022/05/23 04:59:22;;;;;;;5.47;2.77;;;;;;;17.76;48.73;97129.63;8414735;28;20231;-81
2022/05/23 05:03:25;;;;;;;8.33;3.17;;;;;;;17.79;48.67;97129.34;8401182;28;20249;-81
2022/05/23 05:07:28;;;;;;;11.70;4.87;;;;;;;18.17;48.84;97127.81;8414581;28;20242;-81
2022/05/23 05:11:31;;;;;;;6.27;2.97;;;;;;;18.24;47.78;97127.25;8414337;28;20427;-81
2022/05/23 05:15:35;;;;;;;4.97;2.93;;;;;;;18.51;47.65;97135.28;8414627;28;20416;-82
2022/05/23 05:19:38;;;;;;;5.33;2.97;;;;;;;18.29;47.50;97127.69;8401443;28;20412;-81
2022/05/23 05:23:41;;;;;;;4.63;2.77;;;;;;;18.67;47.66;97147.81;8396371;28;20231;-81
2022/05/23 05:27:44;;;;;;;6.07;2.77;;;;;;;18.70;46.96;97155.44;8396942;28;20230;-80
2022/05/23 05:31:52;;;;;;;4.60;2.90;;;;;;;18.71;46.81;97157.06;8396717;28;20393;-80
2022/05/23 05:35:58;;;;;;;5.43;2.73;;;;;;;18.94;46.66;97162.06;8397080;28;20233;-81
2022/05/23 05:40:03;;;;;;;4.20;2.63;;;;;;;19.21;46.61;97174.47;8391425;28;20231;-81
2022/05/23 05:44:09;;;;;;;6.60;2.80;;;;;;;19.23;45.69;97177.78;8381938;28;20231;-81
2022/05/23 05:48:13;;;;;;;4.60;2.67;;;;;;;19.05;45.84;97196.03;8380808;28;20523;-81
2022/05/23 05:52:23;;;;;;;4.63;2.77;;;;;;;19.03;45.08;97207.63;8380802;28;20429;-80
2022/05/23 05:56:26;;;;;;;5.83;3.03;;;;;;;18.92;45.83;97219.94;8380412;28;20230;-80
2022/05/23 06:00:29;;;;;;;7.03;2.63;;;;;;;19.24;45.39;97231.91;8380528;28;20236;-81
2022/05/23 06:04:34;;;;;;;7.90;3.20;;;;;;;19.20;45.50;97267.28;8407381;28;20246;-81
2022/05/23 06:12:57;;;;;;;7.97;3.43;;;;;;;19.30;45.73;97314.53;8413481;28;20232;-81
2022/05/23 06:17:00;;;;;;;6.37;2.87;;;;;;;19.33;46.17;97328.19;8413532;28;20223;-80
2022/05/23 06:21:09;;;;;;;10.57;2.90;;;;;;;19.42;46.55;97323.06;8413308;28;20250;-81
2022/05/23 06:25:14;;;;;;;5.83;2.93;;;;;;;19.13;46.83;97318.66;8413216;28;20234;-81
2022/05/23 06:29:18;;;;;;;8.50;3.10;;;;;;;19.26;46.92;97316.59;8413003;28;20229;-80
2022/05/23 06:33:20;;;;;;;6.97;3.23;;;;;;;19.27;47.54;97299.06;8412820;28;20240;-80
2022/05/23 06:37:25;;;;;;;9.23;3.17;;;;;;;18.99;48.32;97284.97;8416357;28;20529;-80
2022/05/23 06:41:28;;;;;;;5.80;3.00;;;;;;;19.26;48.15;97300.03;8418519;28;20231;-80
2022/05/23 06:45:31;;;;;;;7.20;3.30;;;;;;;19.16;48.45;97297.41;8418521;28;20542;-80
2022/05/23 06:49:34;;;;;;;5.63;2.70;;;;;;;19.26;48.08;97292.16;8418536;28;20231;-80
2022/05/23 06:53:39;;;;;;;7.77;3.40;;;;;;;18.71;49.04;97279.50;8418391;28;20348;-80
2022/05/23 06:57:43;;;;;;;5.80;3.13;;;;;;;18.53;50.15;97259.19;8418186;28;20247;-81
2022/05/23 07:01:46;;;;;;;6.77;3.67;;;;;;;18.39;51.34;97235.16;8418093;28;20223;-80
2022/05/23 07:14:43;;;;;;;10.20;3.67;;;;;;;18.46;54.41;97231.84;8340394;28;20226;-80
2022/05/23 07:18:47;;;;;;;7.80;4.10;;;;;;;18.63;53.65;97224.31;8369882;28;20223;-80
2022/05/23 07:22:50;;;;;;;9.07;3.80;;;;;;;18.26;56.29;97206.56;8351684;28;20413;-80
2022/05/23 07:26:55;;;;;;;7.60;3.70;;;;;;;18.09;58.07;97194.97;8351641;28;20220;-80
2022/05/23 07:30:58;;;;;;;10.97;4.60;;;;;;;17.45;59.73;97164.63;8351237;28;20243;-81
2022/05/23 07:35:01;;;;;;;13.13;4.83;;;;;;;17.46;60.86;97140.09;8351087;28;20561;-87
2022/05/23 07:39:04;;;;;;;9.10;4.47;;;;;;;17.81;59.93;97116.13;8355980;28;20231;-83
2022/05/23 07:43:08;;;;;;;8.90;4.60;;;;;;;17.57;61.05;97027.47;8378312;28;20397;-83
2022/05/23 07:47:11;;;;;;;10.47;4.43;;;;;;;16.89;62.43;96931.31;8399156;28;20222;-84
2022/05/23 07:51:15;;;;;;;10.60;4.43;;;;;;;17.03;62.59;96913.59;8386374;28;20235;-84
2022/05/23 08:04:00;;;;;;;5.83;3.70;;;;;;;17.36;61.81;96939.41;8415922;28;20226;-82
2022/05/23 08:08:03;;;;;;;13.97;4.30;;;;;;;17.61;61.25;96939.84;8416034;28;20231;-85
2022/05/23 08:12:07;;;;;;;7.27;4.17;;;;;;;18.39;58.57;96952.06;8407354;28;20224;-83
2022/05/23 08:16:12;;;;;;;6.80;3.97;;;;;;;18.75;58.48;96958.31;8383321;28;20224;-82
2022/05/23 08:20:15;;;;;;;13.90;3.90;;;;;;;18.97;56.66;96937.97;8383136;28;20409;-77
2022/05/23 08:24:18;;;;;;;6.63;3.70;;;;;;;18.63;57.28;96938.50;8382222;28;20231;-76
2022/05/23 08:28:21;;;;;;;5.87;3.77;;;;;;;19.19;56.94;96924.47;8382255;28;20223;-75
2022/05/23 08:32:25;;;;;;;7.70;3.90;;;;;;;19.33;55.95;96926.56;8381827;28;20240;-77
2022/05/23 08:36:28;;;;;;;7.97;4.10;;;;;;;18.98;56.53;96921.25;8382159;28;20240;-76
2022/05/23 08:40:39;;;;;;;10.33;3.90;;;;;;;18.91;56.11;96927.09;8381801;28;20231;-77
2022/05/23 08:44:46;;;;;;;9.80;3.80;;;;;;;18.91;56.25;96932.31;8381996;28;20247;-77
2022/05/23 08:48:58;;;;;;;7.23;4.07;;;;;;;19.13;56.65;96933.75;8381953;28;20243;-77
2022/05/23 08:53:03;;;;;;;9.37;3.70;;;;;;;19.29;56.21;96929.66;8381799;28;20425;-76
2022/05/23 08:57:10;;;;;;;6.87;3.73;;;;;;;19.20;55.35;96931.34;8381299;28;20228;-77
2022/05/23 09:01:16;;;;;;;8.70;3.70;;;;;;;19.29;55.71;96929.66;8381270;28;20265;-79
2022/05/23 09:05:29;;;;;;;8.13;4.03;;;;;;;19.64;54.51;96923.56;8348431;28;20445;-77
2022/05/23 09:09:52;;;;;;;10.73;4.50;;;;;;;19.69;54.90;96910.84;8348384;28;20232;-77
2022/05/23 09:13:56;;;;;;;6.37;3.60;;;;;;;19.67;54.61;96918.03;8348279;28;20446;-80
2022/05/23 09:18:04;;;;;;;9.83;4.23;;;;;;;20.10;53.43;96907.72;8348542;28;20229;-78
2022/05/23 09:22:17;;;;;;;7.60;3.90;;;;;;;19.86;54.45;96900.50;8348246;28;20238;-81
2022/05/23 09:26:23;;;;;;;8.00;3.73;;;;;;;20.02;54.57;96894.53;8348249;28;20239;-77
2022/05/23 09:30:27;;;;;;;12.57;4.30;;;;;;;20.23;54.17;96899.44;8347444;28;20232;-78
2022/05/23 09:34:32;;;;;;;6.13;3.90;;;;;;;20.54;53.59;96894.50;8347615;28;20248;-79
2022/05/23 09:38:46;;;;;;;7.63;4.10;;;;;;;20.62;53.47;96893.75;8347560;28;20404;-81
2022/05/23 09:51:30;;;;;;;9.80;3.60;;;;;;;21.56;50.15;96887.47;8347162;28;20230;-80
2022/05/23 09:55:37;;;;;;;4.90;3.00;;;;;;;21.88;48.63;96875.31;8347148;28;20230;-79
2022/05/23 09:59:40;;;;;;;5.83;2.90;;;;;;;21.19;48.53;96894.00;8347703;28;20242;-77
2022/05/23 10:03:50;;;;;;;7.43;3.53;;;;;;;21.32;49.81;96882.97;8367323;28;20281;-78
2022/05/23 10:07:55;;;;;;;4.60;2.93;;;;;;;21.37;49.87;96883.31;8380695;28;20376;-77
2022/05/23 10:12:02;;;;;;;4.17;2.47;;;;;;;22.02;47.76;96871.19;8385398;28;20227;-78
2022/05/23 10:16:15;;;;;;;9.00;2.80;;;;;;;22.62;45.11;96875.19;8386373;28;20227;-77
2022/05/23 10:20:27;;;;;;;7.10;2.90;;;;;;;22.54;44.91;96878.69;8354011;28;20537;-77
2022/05/23 10:24:31;;;;;;;5.77;2.90;;;;;;;22.95;44.08;96878.50;8361048;28;20224;-77
2022/05/23 10:28:45;;;;;;;8.37;2.67;;;;;;;23.90;42.45;96882.72;8353083;28;20238;-76
2022/05/23 10:32:51;;;;;;;4.43;2.90;;;;;;;23.54;42.71;96891.25;8376224;28;20238;-77
2022/05/23 10:36:56;;;;;;;5.87;2.93;;;;;;;23.94;42.67;96865.50;8423067;28;20227;-77
2022/05/23 10:45:32;;;;;;;6.90;2.60;;;;;;;24.98;40.48;96872.69;8418201;28;20309;-79
2022/05/23 10:49:41;;;;;;;6.80;2.87;;;;;;;25.03;40.77;96878.22;8415499;28;20241;-77
2022/05/23 10:53:55;;;;;;;5.47;2.53;;;;;;;24.95;41.66;96883.63;8418427;28;20437;-78
2022/05/23 10:58:04;;;;;;;5.00;2.67;;;;;;;25.08;40.21;96883.78;8418136;28;20422;-77
2022/05/23 11:02:17;;;;;;;5.97;2.70;;;;;;;24.44;42.35;96886.19;8411572;28;20231;-78
2022/05/23 11:06:26;;;;;;;4.90;2.57;;;;;;;24.93;40.08;96875.06;8387705;28;20237;-77
2022/05/23 11:10:31;;;;;;;5.83;2.80;;;;;;;25.09;40.64;96882.81;8394202;28;20246;-78
2022/05/23 11:14:48;;;;;;;6.03;2.50;;;;;;;25.28;39.68;96883.22;8393196;28;20238;-78
2022/05/23 11:19:06;;;;;;;7.77;2.60;;;;;;;25.59;39.08;96866.19;8384758;28;20224;-77
2022/05/23 11:23:12;;;;;;;4.73;2.40;;;;;;;24.84;39.82;96876.97;8383771;28;20228;-77
2022/05/23 11:36:23;;;;;;;10.87;2.53;;;;;;;24.46;40.48;96879.69;8374090;28;20234;-77
2022/05/23 11:41:01;;;;;;;6.43;2.20;;;;;;;24.75;40.42;96880.72;8382644;28;20219;-77
2022/05/23 11:50:05;;;;;;;5.83;2.30;;;;;;;24.82;39.80;96884.28;8366405;28;20237;-76
2022/05/23 11:54:13;;;;;;;4.93;2.13;;;;;;;24.76;38.94;96877.09;8379556;28;20556;-76
2022/05/23 11:58:23;;;;;;;7.40;2.30;;;;;;;24.84;39.54;96879.63;8383533;28;20231;-75
2022/05/23 12:02:28;;;;;;;7.03;2.10;;;;;;;24.46;40.11;96879.69;8415720;28;20234;-75
2022/05/23 12:06:41;;;;;;;4.53;2.20;;;;;;;24.51;40.92;96879.16;8415981;28;20321;-75
2022/05/23 12:10:58;;;;;;;5.63;2.00;;;;;;;24.29;41.32;96884.34;8415972;28;20236;-82
2022/05/23 12:15:01;;;;;;;5.83;2.30;;;;;;;23.98;42.16;96874.72;8415953;28;20432;-83
2022/05/23 12:19:29;;;;;;;7.10;2.47;;;;;;;23.90;41.99;96866.06;8416085;28;20226;-82
2022/05/23 12:23:36;;;;;;;3.73;2.17;;;;;;;23.81;42.75;96870.59;8373244;28;20510;-83
2022/05/23 12:27:59;;;;;;;5.57;2.23;;;;;;;23.65;43.33;96868.06;8415484;28;20227;-81
2022/05/23 12:32:25;;;;;;;4.67;2.30;;;;;;;23.68;43.85;96873.78;8415601;28;20249;-79
2022/05/23 12:36:29;;;;;;;6.27;2.67;;;;;;;23.69;44.21;96858.78;8414660;28;20241;-80
2022/05/23 12:40:33;;;;;;;9.33;1.97;;;;;;;23.70;44.92;96866.50;8415340;28;20541;-80
2022/05/23 12:45:13;;;;;;;6.23;2.23;;;;;;;23.65;44.73;96858.31;8414801;28;20241;-80
2022/05/23 12:49:28;;;;;;;27.73;5.40;;;;;;;23.80;45.20;96864.47;8414410;28;20530;-81
2022/05/23 12:53:51;;;;;;;6.83;2.73;;;;;;;23.91;44.34;96868.53;8380770;28;20246;-79
2022/05/23 12:58:05;;;;;;;4.77;2.13;;;;;;;24.03;44.23;96878.66;8380915;28;20227;-79
2022/05/23 13:02:12;;;;;;;4.03;1.80;;;;;;;24.03;44.48;96881.28;8380924;28;20238;-82
2022/05/23 13:06:20;;;;;;;4.93;2.30;;;;;;;23.84;45.25;96878.16;8380898;28;20236;-81
2022/05/23 13:10:25;;;;;;;6.97;2.63;;;;;;;23.61;44.36;96868.41;8380624;28;20525;-83
2022/05/23 13:14:46;;;;;;;7.83;2.20;;;;;;;23.54;43.30;96862.16;8380557;28;20412;-83
2022/05/23 13:23:13;;;;;;;11.60;2.50;;;;;;;23.62;43.44;96871.84;8380834;28;20219;-85
2022/05/23 13:27:21;;;;;;;5.57;2.33;;;;;;;23.60;43.86;96864.09;8380564;28;20242;-84
2022/05/23 13:31:28;;;;;;;8.20;2.27;;;;;;;23.47;44.27;96866.50;8405458;28;20227;-81
2022/05/23 13:35:31;;;;;;;6.40;2.60;;;;;;;23.39;45.12;96858.66;8413597;28;20240;-81
2022/05/23 13:39:45;;;;;;;8.43;2.33;;;;;;;23.26;45.67;96851.31;8413418;28;20234;-85
2022/05/23 13:43:48;;;;;;;10.50;2.57;;;;;;;23.20;46.10;96836.97;8413423;28;20443;-83
2022/05/23 13:47:56;;;;;;;6.30;2.70;;;;;;;23.22;45.95;96807.75;8397847;28;20444;-84
2022/05/23 13:52:00;;;;;;;5.20;2.73;;;;;;;22.92;47.12;96797.00;8354181;28;20537;-84
2022/05/23 13:56:05;;;;;;;16.93;3.30;;;;;;;22.75;49.25;96771.72;8354409;28;20239;-81
2022/05/23 14:00:14;;;;;;;11.27;3.77;;;;;;;22.47;53.83;96766.13;8353844;28;20228;-83
2022/05/23 14:04:20;;;;;;;7.20;4.00;;;;;;;22.32;54.36;96761.53;8378108;28;20228;-84
2022/05/23 14:08:33;;;;;;;11.93;4.73;;;;;;;22.27;57.42;96749.88;8411672;28;20234;-81
2022/05/23 14:12:39;;;;;;;9.00;4.47;;;;;;;22.14;57.18;96751.22;8419546;28;20230;-81
2022/05/23 14:16:50;;;;;;;15.07;4.83;;;;;;;22.29;58.01;96717.06;8419397;28;20306;-81
2022/05/23 14:20:53;;;;;;;8.40;4.83;;;;;;;21.97;59.49;96692.47;8419387;28;20231;-85
2022/05/23 14:24:59;;;;;;;10.43;4.93;;;;;;;21.87;59.96;96678.66;8419308;28;20234;-82
2022/05/23 14:29:12;;;;;;;14.67;5.70;;;;;;;21.57;62.64;96644.19;8420143;28;20269;-83
2022/05/23 14:33:21;;;;;;;11.93;6.20;;;;;;;21.25;65.06;96548.44;8419711;28;20237;-82
2022/05/23 14:37:24;;;;;;;8.87;5.10;;;;;;;20.74;65.91;96502.38;8418652;28;20502;-82
2022/05/23 14:41:29;;;;;;;9.30;5.17;;;;;;;20.49;66.54;96403.28;8418957;28;20257;-81
2022/05/23 14:45:51;;;;;;;10.67;4.63;;;;;;;20.46;64.29;96382.56;8418667;28;20288;-82
2022/05/23 14:49:59;;;;;;;10.53;5.13;;;;;;;20.56;64.48;96386.81;8418461;28;20431;-82
2022/05/23 15:02:58;;;;;;;9.20;4.27;;;;;;;21.76;59.86;96487.53;8384949;28;20545;-82
2022/05/23 15:07:02;;;;;;;7.27;3.30;;;;;;;22.27;56.74;96518.63;8384669;28;20237;-82
2022/05/23 15:11:06;;;;;;;10.33;3.87;;;;;;;22.42;57.29;96539.78;8384799;28;20292;-81
2022/05/23 15:15:09;;;;;;;8.50;3.55;;;;;;;22.88;57.06;96530.97;8382940;28;20435;-80
2022/05/23 15:19:17;;;;;;;10.83;4.07;;;;;;;22.79;58.03;96536.34;8383909;28;20238;-80
2022/05/23 15:23:20;;;;;;;14.33;3.80;;;;;;;22.72;57.81;96537.25;8384757;28;20259;-78
2022/05/23 15:27:25;;;;;;;10.63;3.57;;;;;;;22.82;56.83;96557.06;8391787;28;20228;-78
2022/05/23 15:31:29;;;;;;;8.90;3.30;;;;;;;22.95;55.86;96567.03;8386436;28;20223;-76
2022/05/23 15:35:33;;;;;;;8.87;3.80;;;;;;;23.41;55.86;96580.09;8416795;28;20231;-78
2022/05/23 15:39:36;;;;;;;8.27;3.53;;;;;;;23.66;56.02;96589.56;8416930;28;20238;-79
2022/05/23 15:43:39;;;;;;;9.37;4.10;;;;;;;23.43;55.23;96630.91;8416616;28;20256;-79
2022/05/23 15:47:42;;;;;;;8.60;3.70;;;;;;;23.49;55.64;96626.72;8416513;28;20256;-79
2022/05/23 15:51:47;;;;;;;11.53;3.90;;;;;;;23.44;54.73;96639.69;8416294;28;20257;-79
2022/05/23 15:55:52;;;;;;;7.20;3.43;;;;;;;23.49;54.87;96637.31;8416231;28;20227;-78
2022/05/23 15:59:56;;;;;;;11.03;3.60;;;;;;;23.24;54.16;96639.38;8416293;28;20288;-80
2022/05/23 16:03:59;;;;;;;9.20;3.67;;;;;;;23.30;53.72;96637.84;8415920;28;20232;-78
2022/05/23 16:08:04;;;;;;;6.83;3.23;;;;;;;23.16;53.80;96626.25;8416082;28;20241;-79
2022/05/23 16:12:08;;;;;;;10.93;3.47;;;;;;;23.18;53.66;96622.44;8415798;28;20235;-80
2022/05/23 16:16:13;;;;;;;8.23;3.17;;;;;;;23.33;53.30;96640.13;8415609;28;20235;-75
2022/05/23 16:20:21;;;;;;;6.10;3.10;;;;;;;23.05;53.93;96624.88;8415654;28;20271;-80
2022/05/23 16:24:25;;;;;;;8.27;3.20;;;;;;;23.15;53.82;96616.69;8406908;28;20233;-78
2022/05/23 16:28:28;;;;;;;7.97;3.20;;;;;;;23.33;53.86;96606.59;8388901;28;20228;-81
2022/05/23 16:36:51;;;;;;;6.60;3.30;;;;;;;23.18;53.24;96627.72;8381441;28;20234;-81
2022/05/23 16:40:57;;;;;;;9.03;3.23;;;;;;;22.98;53.47;96626.53;8381985;28;20235;-80
2022/05/23 16:45:02;;;;;;;9.47;3.30;;;;;;;23.25;53.29;96637.56;8381458;28;20229;-80
2022/05/23 16:49:05;;;;;;;9.33;3.30;;;;;;;23.06;53.49;96637.09;8381652;28;20238;-82
2022/05/23 16:53:08;;;;;;;6.63;3.20;;;;;;;23.30;53.24;96629.91;8381569;28;20234;-80
2022/05/23 16:57:12;;;;;;;7.17;3.00;;;;;;;23.30;52.97;96611.44;8381276;28;20552;-79
2022/05/23 17:01:17;;;;;;;8.30;3.33;;;;;;;23.20;53.29;96627.53;8381293;28;20420;-78
2022/05/23 17:05:21;;;;;;;7.30;3.20;;;;;;;23.13;54.10;96650.38;8348004;28;20241;-79
2022/05/23 17:09:24;;;;;;;9.70;4.20;;;;;;;23.04;53.95;96678.69;8402528;28;20222;-83
2022/05/23 17:13:28;;;;;;;7.57;3.20;;;;;;;22.95;55.23;96695.56;8413954;28;20229;-85
2022/05/23 17:17:31;;;;;;;7.10;3.33;;;;;;;22.89;55.42;96680.44;8401744;28;20264;-84
2022/05/23 17:21:34;;;;;;;8.93;3.43;;;;;;;22.82;56.02;96672.38;8413551;28;20237;-83
2022/05/23 17:25:37;;;;;;;8.87;3.20;;;;;;;22.86;56.33;96675.50;8414058;28;20404;-83
2022/05/23 17:29:42;;;;;;;7.83;3.07;;;;;;;22.75;57.54;96674.94;8413851;28;20529;-82
2022/05/23 17:33:45;;;;;;;7.40;3.17;;;;;;;22.73;58.33;96676.91;8413513;28;20226;-84
2022/05/23 17:37:51;;;;;;;11.03;3.60;;;;;;;22.35;59.79;96671.56;8413317;28;20533;-83
2022/05/23 17:41:54;;;;;;;9.57;3.70;;;;;;;22.45;59.53;96677.41;8366849;28;20228;-82
2022/05/23 17:45:58;;;;;;;9.93;3.63;;;;;;;22.41;59.54;96678.75;8347574;28;20232;-82
2022/05/23 17:50:01;;;;;;;9.73;3.77;;;;;;;22.31;59.60;96678.13;8347615;28;20255;-83
2022/05/23 17:54:04;;;;;;;10.17;3.37;;;;;;;21.93;60.82;96666.59;8347686;28;20415;-80
2022/05/23 17:58:07;;;;;;;8.93;4.17;;;;;;;22.10;60.83;96652.34;8366894;28;20238;-82
2022/05/23 18:02:12;;;;;;;8.50;3.70;;;;;;;21.93;61.54;96625.25;8380603;28;20231;-84
2022/05/23 18:06:15;;;;;;;10.03;3.57;;;;;;;21.80;61.61;96596.00;8380592;28;20246;-84
2022/05/23 18:10:18;;;;;;;10.10;3.50;;;;;;;21.55;60.57;96579.47;8380260;28;20234;-84
2022/05/23 18:23:06;;;;;;;8.37;3.37;;;;;;;21.72;57.95;96583.69;8380130;28;20254;-83
2022/05/23 18:27:09;;;;;;;16.27;3.33;;;;;;;21.75;57.41;96577.25;8379965;28;20226;-87
2022/05/23 18:31:13;;;;;;;11.90;2.57;;;;;;;21.37;58.09;96566.53;8382193;28;20553;-86
2022/05/23 18:35:18;;;;;;;8.20;2.83;;;;;;;21.42;57.96;96559.75;8385924;28;20346;-86
2022/05/23 18:39:21;;;;;;;9.80;3.17;;;;;;;21.27;58.83;96540.38;8360956;28;20416;-84
2022/05/23 18:43:24;;;;;;;10.13;3.10;;;;;;;21.22;58.56;96548.78;8352230;28;20228;-84
2022/05/23 18:47:27;;;;;;;7.93;3.20;;;;;;;21.19;58.68;96520.19;8352611;28;20309;-85
2022/05/23 18:51:32;;;;;;;6.67;2.60;;;;;;;21.14;58.18;96493.53;8352388;28;20254;-84
2022/05/23 18:55:36;;;;;;;9.90;2.90;;;;;;;21.07;58.70;96500.47;8351958;28;20235;-79
2022/05/23 18:59:39;;;;;;;10.00;2.70;;;;;;;21.09;58.80;96515.13;8351930;28;20235;-82
2022/05/23 19:03:45;;;;;;;7.50;2.63;;;;;;;21.17;58.11;96523.94;8352011;28;20241;-82
2022/05/23 19:07:50;;;;;;;9.10;2.90;;;;;;;21.07;59.05;96513.63;8351886;28;20557;-81
2022/05/23 19:11:53;;;;;;;10.33;3.20;;;;;;;21.01;58.92;96516.94;8386312;28;20572;-82
2022/05/23 19:15:56;;;;;;;8.27;3.40;;;;;;;21.25;58.03;96518.69;8400439;28;20414;-82
2022/05/23 19:19:59;;;;;;;10.53;2.90;;;;;;;21.14;58.32;96535.66;8400561;28;20530;-82
2022/05/23 19:24:04;;;;;;;6.63;2.90;;;;;;;21.28;57.87;96539.38;8395843;28;20237;-81
2022/05/23 19:28:07;;;;;;;7.73;2.90;;;;;;;20.99;58.10;96556.56;8395908;28;20218;-81
2022/05/23 19:32:12;;;;;;;6.90;2.50;;;;;;;21.05;56.96;96578.78;8393081;28;20236;-79
2022/05/23 19:36:15;;;;;;;5.77;2.53;;;;;;;20.98;57.21;96589.16;8383991;28;20525;-81
2022/05/23 19:40:20;;;;;;;5.77;2.30;;;;;;;21.06;56.58;96593.59;8383428;28;20406;-81
2022/05/23 19:44:23;;;;;;;7.53;2.53;;;;;;;21.02;56.80;96601.00;8382303;28;20238;-79
2022/05/23 19:48:26;;;;;;;7.97;2.93;;;;;;;20.82;57.25;96591.78;8383623;28;20436;-86
2022/05/23 19:52:29;;;;;;;10.13;2.50;;;;;;;20.80;57.15;96593.78;8384368;28;20230;-87
2022/05/23 19:56:33;;;;;;;7.37;3.10;;;;;;;20.74;57.66;96604.97;8383104;28;20427;-85
2022/05/23 20:00:38;;;;;;;7.70;2.90;;;;;;;20.79;57.46;96606.13;8382813;28;20309;-86
2022/05/23 20:09:02;;;;;;;9.10;3.07;;;;;;;20.65;57.83;96617.28;8381760;28;20259;-85
2022/05/23 20:13:06;;;;;;;8.47;2.57;;;;;;;20.64;57.18;96647.22;8382489;28;20302;-84
2022/05/23 20:17:09;;;;;;;19.00;3.70;;;;;;;20.24;60.36;96662.72;8380413;28;20231;-84
2022/05/23 20:21:12;;;;;;;12.33;3.97;;;;;;;20.53;59.55;96677.25;8381844;28;20521;-82
2022/05/23 20:25:16;;;;;;;11.83;3.60;;;;;;;20.62;59.64;96691.25;8382071;28;20325;-85
2022/05/23 20:29:20;;;;;;;6.23;2.33;;;;;;;20.37;61.23;96698.22;8381705;28;20244;-85
2022/05/23 20:33:23;;;;;;;11.53;3.37;;;;;;;20.75;59.16;96691.59;8379227;28;20223;-81
2022/05/23 20:37:26;;;;;;;9.97;3.27;;;;;;;20.74;59.61;96694.41;8381962;28;20227;-83
2022/05/23 20:41:30;;;;;;;12.90;4.30;;;;;;;20.95;58.46;96707.06;8382590;28;20220;-82
2022/05/23 20:45:54;;;;;;;11.50;3.07;;;;;;;20.96;58.60;96690.28;8382438;28;20239;-81
2022/05/23 20:49:57;;;;;;;12.17;3.50;;;;;;;21.00;58.23;96694.22;8382055;28;20227;-84
2022/05/23 20:54:00;;;;;;;10.90;3.47;;;;;;;20.90;58.04;96691.75;8380973;28;20423;-84
2022/05/23 20:58:03;;;;;;;12.07;2.97;;;;;;;20.82;58.68;96700.47;8382160;28;20545;-84